Haley, North Dakota
Current Conditions -  °F | °C
As of 12:53 PM on Sunday 23 Nov 2014 (Local Time) from KHEI Reporting Station
Overcast Overcast  
Wind Chill:   Ceiling: 2400
Heat Index: 27°   Visibility: 10mi
Dew Point: 18°   Wind: 38mph
Humidity: 69%   Direction: 300°WNW
Pressure: 29.64"   Gusts: 49mph
Location:  46.1126°N, 103.12°W
Report Text: KHEI 231953Z AUTO 30033G43KT 10SM OVC024 M03/M08 A2964 RMK AO2 PK WND 31044/1856 SLP061 T10281078
Loading
Personal Weather Stations






























Interactive Weather Map New forecast layout! Learn more

10-Day Weather Forecast

Advertisements
Track Severe Weather on mobile